Time;durP1;ratioP1;P1;durP2;ratioP2;P2;SDS_P1;SDS_P2;PMS_P1;PMS_P2;Temp;Humidity;BMP_temperature;BMP_pressure;BME280_temperature;BME280_humidity;BME280_pressure;Samples;Min_cycle;Max_cycle;Signal;HPM_P1;HPM_P2
2021/11/02 00:01:48;;;;;;;4.47;1.60;;;11.20;81.60;;;;;;5113839;28;20434;-69
2021/11/02 00:04:14;;;;;;;7.10;1.77;;;11.20;81.70;;;;;;5113715;28;20475;-69
2021/11/02 00:06:41;;;;;;;3.60;1.50;;;11.20;81.80;;;;;;5113715;28;20458;-69
2021/11/02 00:09:09;;;;;;;5.87;1.60;;;11.20;81.60;;;;;;5113634;28;20459;-70
2021/11/02 00:11:36;;;;;;;2.70;1.40;;;11.20;81.70;;;;;;5113207;28;20541;-69
2021/11/02 00:14:13;;;;;;;5.47;3.30;;;11.10;81.40;;;;;;5113414;28;20434;-70
2021/11/02 00:16:41;;;;;;;3.83;1.20;;;11.10;81.30;;;;;;5113351;28;20435;-69
2021/11/02 00:19:08;;;;;;;10.47;1.70;;;11.10;81.70;;;;;;5113549;28;20494;-70
2021/11/02 00:21:38;;;;;;;3.60;1.77;;;11.10;81.60;;;;;;5113290;28;20932;-70
2021/11/02 00:24:16;;;;;;;4.10;1.60;;;11.00;81.90;;;;;;5117219;28;20474;-69
2021/11/02 00:26:44;;;;;;;5.50;1.63;;;11.00;82.10;;;;;;5117288;28;20426;-70
2021/11/02 00:29:11;;;;;;;4.13;1.90;;;10.90;81.60;;;;;;5117398;28;20466;-69
2021/11/02 00:31:38;;;;;;;6.53;1.70;;;10.90;81.50;;;;;;5117515;28;20430;-69
2021/11/02 00:34:06;;;;;;;6.50;2.03;;;10.90;81.40;;;;;;5117433;28;20442;-70
2021/11/02 00:36:32;;;;;;;3.10;2.07;;;10.80;81.40;;;;;;5117371;28;20443;-69
2021/11/02 00:38:59;;;;;;;3.20;1.60;;;10.80;81.80;;;;;;5117076;28;20470;-70
2021/11/02 00:41:26;;;;;;;3.63;1.33;;;10.90;82.10;;;;;;5117311;28;20434;-69
2021/11/02 00:43:54;;;;;;;5.60;1.60;;;10.80;81.90;;;;;;5116851;28;21037;-69
2021/11/02 00:46:26;;;;;;;15.73;2.90;;;10.80;81.80;;;;;;5116829;28;20447;-70
2021/11/02 00:48:53;;;;;;;4.63;1.40;;;10.90;82.20;;;;;;5117060;28;20531;-70
2021/11/02 00:51:21;;;;;;;3.80;1.70;;;10.80;82.50;;;;;;5117041;28;20451;-69
2021/11/02 00:53:48;;;;;;;5.03;1.50;;;10.80;82.90;;;;;;5116772;28;20446;-69
2021/11/02 00:56:14;;;;;;;5.80;1.73;;;10.80;83.10;;;;;;5117022;28;20443;-69
2021/11/02 00:58:41;;;;;;;3.60;1.47;;;10.80;83.50;;;;;;5116838;28;20469;-69
2021/11/02 01:01:08;;;;;;;4.00;1.63;;;10.80;83.80;;;;;;5116648;28;20940;-69
2021/11/02 01:03:36;;;;;;;5.80;1.20;;;10.80;84.00;;;;;;5116813;28;20466;-69
2021/11/02 01:06:03;;;;;;;4.23;1.77;;;10.80;84.10;;;;;;5116747;28;20442;-69
2021/11/02 01:08:32;;;;;;;2.17;1.53;;;10.70;84.00;;;;;;5116675;28;20459;-69
2021/11/02 01:10:59;;;;;;;6.20;1.70;;;10.70;84.20;;;;;;5116717;28;20451;-69
2021/11/02 01:13:27;;;;;;;4.50;1.40;;;10.70;84.20;;;;;;5116687;28;20438;-70
2021/11/02 01:15:54;;;;;;;4.77;1.60;;;10.70;84.20;;;;;;5116584;28;20492;-69
2021/11/02 01:18:20;;;;;;;7.50;2.50;;;10.70;84.20;;;;;;5116715;28;20458;-69
2021/11/02 01:20:47;;;;;;;7.80;1.87;;;10.70;84.20;;;;;;5116806;28;20443;-69
2021/11/02 01:23:15;;;;;;;5.97;1.77;;;10.70;84.30;;;;;;5117418;28;20475;-70
2021/11/02 01:25:43;;;;;;;5.80;1.80;;;10.70;84.50;;;;;;5116416;28;20454;-70
2021/11/02 01:28:09;;;;;;;7.40;1.70;;;10.60;84.40;;;;;;5115985;28;20467;-69
2021/11/02 01:30:36;;;;;;;5.27;1.57;;;10.60;84.50;;;;;;5116027;28;20954;-70
2021/11/02 01:33:03;;;;;;;6.17;1.87;;;10.60;84.50;;;;;;5115854;28;20435;-69
2021/11/02 01:35:31;;;;;;;4.93;2.10;;;10.60;84.60;;;;;;5116211;28;20449;-69
2021/11/02 01:37:57;;;;;;;9.90;1.80;;;10.50;84.60;;;;;;5116113;28;20467;-69
2021/11/02 01:40:24;;;;;;;1.73;1.53;;;10.50;84.80;;;;;;5115743;28;20882;-70
2021/11/02 01:42:52;;;;;;;7.07;1.70;;;10.50;84.90;;;;;;5115965;28;20474;-70
2021/11/02 01:45:21;;;;;;;3.93;1.93;;;10.40;84.90;;;;;;5115695;28;20959;-70
2021/11/02 01:47:49;;;;;;;2.43;1.70;;;10.40;85.00;;;;;;5115639;28;20475;-69
2021/11/02 01:50:17;;;;;;;3.70;2.00;;;10.40;85.20;;;;;;5115924;28;20796;-69
2021/11/02 01:52:44;;;;;;;3.73;1.50;;;10.30;85.30;;;;;;5115873;28;20443;-69
2021/11/02 01:55:12;;;;;;;4.90;2.97;;;10.40;85.70;;;;;;5115490;28;20446;-69
2021/11/02 01:57:39;;;;;;;4.00;1.70;;;10.30;85.90;;;;;;5115744;28;20470;-69
2021/11/02 02:00:11;;;;;;;4.57;1.53;;;10.30;86.10;;;;;;5115733;28;20447;-69
2021/11/02 02:02:46;;;;;;;3.77;1.47;;;10.30;86.00;;;;;;5115343;28;20892;-69
2021/11/02 02:05:22;;;;;;;3.27;1.30;;;10.30;86.00;;;;;;5115624;28;20484;-69
2021/11/02 02:08:02;;;;;;;2.13;1.30;;;10.30;86.10;;;;;;5115246;28;20987;-69
2021/11/02 02:10:36;;;;;;;2.30;1.30;;;10.30;86.10;;;;;;5115597;28;20437;-70
2021/11/02 02:13:13;;;;;;;5.23;1.67;;;10.30;86.10;;;;;;5116366;28;20415;-70
2021/11/02 02:15:47;;;;;;;2.23;1.23;;;10.30;86.00;;;;;;5115069;28;20419;-69
2021/11/02 02:18:17;;;;;;;1.80;1.27;;;10.30;86.10;;;;;;5115282;28;20553;-70
2021/11/02 02:21:11;;;;;;;3.50;1.30;;;10.30;86.20;;;;;;5115373;28;20423;-69
2021/11/02 02:23:51;;;;;;;1.23;1.13;;;10.30;86.30;;;;;;5115231;28;20458;-69
2021/11/02 02:26:32;;;;;;;2.70;1.73;;;10.30;86.30;;;;;;5115809;28;20431;-69
2021/11/02 02:29:03;;;;;;;2.33;1.87;;;10.30;86.40;;;;;;5115113;28;20966;-69
2021/11/02 02:31:32;;;;;;;4.03;2.70;;;10.30;86.30;;;;;;5115131;28;20427;-69
2021/11/02 02:34:00;;;;;;;4.00;2.13;;;10.20;86.30;;;;;;5115046;28;20442;-69
2021/11/02 02:36:29;;;;;;;3.43;2.40;;;10.30;86.50;;;;;;5115020;28;20450;-69
2021/11/02 02:38:56;;;;;;;3.47;2.07;;;10.20;86.30;;;;;;5114765;28;20470;-69
2021/11/02 02:41:26;;;;;;;4.83;3.43;;;10.20;86.40;;;;;;5114932;28;20437;-69
2021/11/02 02:43:54;;;;;;;3.80;2.70;;;10.20;86.40;;;;;;5114771;28;20479;-69
2021/11/02 02:46:23;;;;;;;6.10;3.03;;;10.20;86.50;;;;;;5114077;28;20443;-69
2021/11/02 02:48:50;;;;;;;3.60;2.80;;;10.10;86.50;;;;;;5114688;28;20459;-69
2021/11/02 02:51:19;;;;;;;3.70;3.00;;;10.10;86.50;;;;;;5114739;28;20447;-69
2021/11/02 02:53:49;;;;;;;3.33;2.50;;;10.10;86.70;;;;;;5114380;28;20801;-69
2021/11/02 02:56:18;;;;;;;6.13;3.30;;;10.10;86.90;;;;;;5114467;28;20861;-69
2021/11/02 02:58:48;;;;;;;3.13;2.80;;;10.00;86.50;;;;;;5114246;28;20991;-69
2021/11/02 03:01:17;;;;;;;3.17;2.60;;;10.00;86.80;;;;;;5114661;28;20431;-69
2021/11/02 03:03:49;;;;;;;3.33;3.03;;;10.00;87.10;;;;;;5114119;28;21008;-69
2021/11/02 03:06:23;;;;;;;3.53;2.47;;;9.90;88.40;;;;;;5114519;28;20438;-69
2021/11/02 03:08:50;;;;;;;5.20;2.93;;;9.90;88.70;;;;;;5114105;28;20458;-70
2021/11/02 03:11:19;;;;;;;4.23;2.93;;;9.90;88.70;;;;;;5114395;28;20443;-69
2021/11/02 03:13:49;;;;;;;3.80;2.43;;;10.00;87.50;;;;;;5114366;28;20439;-70
2021/11/02 03:16:20;;;;;;;4.90;2.03;;;9.90;88.80;;;;;;5114398;28;20451;-70
2021/11/02 03:19:17;;;;;;;4.30;1.83;;;9.90;88.60;;;;;;5114072;28;20557;-69
2021/11/02 03:44:15;;;;;;;2.00;0.90;;;9.90;88.80;;;;;;5114043;28;20573;-69
2021/11/02 03:49:36;;;;;;;0.90;0.80;;;9.90;88.60;;;;;;5113783;28;20398;-69
2021/11/02 03:54:53;;;;;;;4.50;1.40;;;9.80;88.50;;;;;;5114003;28;20415;-69
2021/11/02 03:57:34;;;;;;;3.00;1.40;;;9.70;88.50;;;;;;5116719;28;20822;-69
2021/11/02 04:00:24;;;;;;;1.83;1.10;;;9.70;89.00;;;;;;5118224;28;20808;-69
2021/11/02 05:10:18;;;;;;;1.40;1.30;;;9.30;89.40;;;;;;5069732;28;20432;-69
2021/11/02 05:13:20;;;;;;;2.97;1.10;;;9.40;89.50;;;;;;5070089;28;20468;-69
2021/11/02 05:49:15;;;;;;;2.60;2.17;;;9.20;89.30;;;;;;5056146;28;20980;-69
2021/11/02 05:52:12;;;;;;;6.00;2.10;;;9.20;89.50;;;;;;5056168;28;20560;-69
2021/11/02 05:57:34;;;;;;;5.43;1.70;;;9.10;90.00;;;;;;5055897;28;20444;-69
2021/11/02 06:00:04;;;;;;;2.07;1.43;;;9.10;90.10;;;;;;5055835;28;20515;-69
2021/11/02 06:05:31;;;;;;;1.53;1.20;;;9.10;90.10;;;;;;5045519;28;20449;-69
2021/11/02 06:08:24;;;;;;;2.20;1.47;;;9.10;90.20;;;;;;5055555;28;20466;-69
2021/11/02 06:28:03;;;;;;;3.10;1.60;;;9.00;90.20;;;;;;5054990;28;20450;-69
2021/11/02 06:30:37;;;;;;;1.73;1.63;;;9.00;90.10;;;;;;5055003;28;20511;-69
2021/11/02 06:33:13;;;;;;;3.33;1.90;;;9.10;90.10;;;;;;5055002;28;20560;-69
2021/11/02 06:35:51;;;;;;;1.87;1.47;;;9.10;90.00;;;;;;5054934;28;20437;-69
2021/11/02 06:38:47;;;;;;;5.67;1.70;;;9.10;90.00;;;;;;5055181;28;20473;-69
2021/11/02 06:47:08;;;;;;;2.17;1.80;;;8.90;90.00;;;;;;5055064;28;20405;-69
2021/11/02 06:50:04;;;;;;;4.20;1.67;;;8.80;90.30;;;;;;5054648;28;20915;-69
2021/11/02 06:52:58;;;;;;;4.50;1.63;;;8.80;90.50;;;;;;5053681;28;20922;-69
2021/11/02 06:58:32;;;;;;;3.40;2.00;;;8.70;90.70;;;;;;5014070;28;20456;-69
2021/11/02 07:18:03;;;;;;;3.17;1.47;;;8.80;90.90;;;;;;4992710;28;20503;-71
2021/11/02 07:20:40;;;;;;;5.80;1.87;;;8.90;90.90;;;;;;4992685;28;20474;-69
2021/11/02 07:23:23;;;;;;;2.53;1.40;;;8.90;90.80;;;;;;5027283;28;21003;-67
2021/11/02 07:25:59;;;;;;;4.30;1.93;;;9.10;90.80;;;;;;5054270;28;20438;-67
2021/11/02 08:47:07;;;;;;;3.40;1.50;;;10.40;86.80;;;;;;5053246;28;20433;-69
2021/11/02 08:49:40;;;;;;;3.63;1.30;;;10.50;86.60;;;;;;5053083;28;20437;-69
2021/11/02 08:52:07;;;;;;;4.27;1.80;;;10.60;86.40;;;;;;5052879;28;20799;-69
2021/11/02 08:54:36;;;;;;;3.03;1.33;;;10.60;86.10;;;;;;5052745;28;20445;-69
2021/11/02 08:57:05;;;;;;;1.67;1.20;;;10.60;85.90;;;;;;5053037;28;20446;-69
2021/11/02 08:59:33;;;;;;;7.97;1.70;;;10.60;85.80;;;;;;5052719;28;20967;-69
2021/11/02 09:02:03;;;;;;;2.77;1.43;;;10.60;86.10;;;;;;5053053;28;20441;-69
2021/11/02 09:04:32;;;;;;;1.57;1.33;;;10.70;86.10;;;;;;5052768;28;20445;-69
2021/11/02 09:07:03;;;;;;;5.90;1.50;;;10.70;86.20;;;;;;5053035;28;20468;-70
2021/11/02 09:09:33;;;;;;;5.53;2.27;;;10.70;86.50;;;;;;5052825;28;20468;-69
2021/11/02 09:12:03;;;;;;;4.00;1.57;;;10.70;86.80;;;;;;5054154;28;20477;-69
2021/11/02 09:14:37;;;;;;;4.57;2.03;;;10.70;88.00;;;;;;5052775;28;20533;-69
2021/11/02 09:17:06;;;;;;;4.63;1.80;;;10.70;87.50;;;;;;5055140;28;20943;-68
2021/11/02 09:19:35;;;;;;;9.47;2.00;;;10.70;88.10;;;;;;5056627;28;20434;-68
2021/11/02 09:22:03;;;;;;;4.10;2.30;;;10.70;87.90;;;;;;5056494;28;20469;-67
2021/11/02 09:24:31;;;;;;;3.60;1.90;;;10.70;88.40;;;;;;5056563;28;20452;-68
2021/11/02 09:26:58;;;;;;;2.60;1.67;;;10.70;88.80;;;;;;5056409;28;20449;-67
2021/11/02 09:29:25;;;;;;;4.50;3.07;;;10.70;89.40;;;;;;5055355;28;20492;-67
2021/11/02 09:31:57;;;;;;;5.93;2.93;;;10.70;89.60;;;;;;5056205;28;20445;-67
2021/11/02 09:34:25;;;;;;;2.90;2.00;;;10.80;89.60;;;;;;5056745;28;20435;-67
2021/11/02 09:37:02;;;;;;;5.23;2.03;;;10.80;89.50;;;;;;5056058;28;21003;-67
2021/11/02 09:39:38;;;;;;;5.80;2.17;;;10.90;89.80;;;;;;5056066;28;20472;-68
2021/11/02 09:42:57;;;;;;;4.43;2.13;;;11.00;90.00;;;;;;5055932;28;20433;-68
2021/11/02 09:46:04;;;;;;;3.00;1.70;;;11.10;89.40;;;;;;5055882;28;20441;-67
2021/11/02 09:49:17;;;;;;;3.33;2.10;;;11.10;88.90;;;;;;5041296;28;20473;-68
2021/11/02 09:52:16;;;;;;;4.80;1.53;;;11.10;89.10;;;;;;5056000;28;20430;-68
2021/11/02 09:55:25;;;;;;;4.77;2.03;;;11.10;89.50;;;;;;5056051;28;20429;-69
2021/11/02 09:58:07;;;;;;;2.53;1.93;;;11.10;89.80;;;;;;5044757;28;20505;-68
2021/11/02 10:01:03;;;;;;;6.77;2.30;;;11.10;89.90;;;;;;5055914;28;20465;-68
2021/11/02 10:04:12;;;;;;;6.73;2.30;;;11.10;90.20;;;;;;5056182;28;20445;-68
2021/11/02 10:07:13;;;;;;;4.97;2.00;;;11.10;90.20;;;;;;5055342;28;20927;-69
2021/11/02 10:09:56;;;;;;;2.43;1.70;;;11.20;90.20;;;;;;5055349;28;20436;-68
2021/11/02 10:12:25;;;;;;;2.13;1.60;;;11.20;90.20;;;;;;5055627;28;20465;-68
2021/11/02 10:15:09;;;;;;;1.20;1.10;;;11.30;90.20;;;;;;5055205;28;20944;-68
2021/11/02 10:18:16;;;;;;;5.60;2.40;;;11.40;90.20;;;;;;5055245;28;20469;-68
2021/11/02 10:21:25;;;;;;;4.37;1.67;;;11.50;90.10;;;;;;5055134;28;20461;-68
2021/11/02 10:24:17;;;;;;;3.57;1.83;;;11.70;90.00;;;;;;5055478;28;20453;-68
2021/11/02 10:26:57;;;;;;;2.10;1.23;;;11.70;89.80;;;;;;5055244;28;20434;-69
2021/11/02 10:30:19;;;;;;;2.07;1.70;;;11.70;89.20;;;;;;5054824;28;20492;-70
2021/11/02 10:32:48;;;;;;;3.73;1.67;;;11.80;89.00;;;;;;5053341;28;20454;-69
2021/11/02 10:35:21;;;;;;;4.77;2.90;;;11.80;88.90;;;;;;5055758;28;20508;-69
2021/11/02 10:37:57;;;;;;;3.70;2.37;;;11.80;88.80;;;;;;5054504;28;20492;-68
2021/11/02 10:40:34;;;;;;;2.40;1.50;;;11.80;89.00;;;;;;5055325;28;20496;-68
2021/11/02 10:43:30;;;;;;;4.10;1.97;;;11.80;88.70;;;;;;5054799;28;20434;-69
2021/11/02 10:46:02;;;;;;;4.80;1.70;;;11.90;88.80;;;;;;5055553;28;20454;-68
2021/11/02 10:48:31;;;;;;;8.30;2.27;;;11.90;88.60;;;;;;5054851;28;20462;-68
2021/11/02 10:51:05;;;;;;;3.00;2.23;;;11.90;88.60;;;;;;5054977;28;20525;-69
2021/11/02 10:53:38;;;;;;;3.13;2.10;;;11.90;88.40;;;;;;5054833;28;20422;-69
2021/11/02 10:56:14;;;;;;;3.63;1.87;;;11.90;88.00;;;;;;5054559;28;20426;-70
2021/11/02 10:58:46;;;;;;;5.30;2.10;;;11.80;88.30;;;;;;5054667;28;20474;-69
2021/11/02 11:01:13;;;;;;;1.97;1.87;;;11.80;88.20;;;;;;5054554;28;20461;-69
2021/11/02 11:03:41;;;;;;;3.37;1.87;;;11.80;88.00;;;;;;5054473;28;20794;-69
2021/11/02 11:06:10;;;;;;;3.37;2.03;;;11.80;88.30;;;;;;5054391;28;20446;-69
2021/11/02 11:08:40;;;;;;;5.60;2.73;;;11.80;88.50;;;;;;5054107;28;20466;-69
2021/11/02 11:11:08;;;;;;;4.40;2.60;;;11.80;88.60;;;;;;5054582;28;20521;-69
2021/11/02 11:13:35;;;;;;;7.07;4.30;;;11.80;90.00;;;;;;5054130;28;20442;-69
2021/11/02 11:16:13;;;;;;;6.87;4.10;;;11.90;90.00;;;;;;5054081;28;20452;-69
2021/11/02 11:18:56;;;;;;;9.73;3.50;;;11.90;90.00;;;;;;5054009;28;20461;-69
2021/11/02 11:21:25;;;;;;;3.67;2.13;;;12.10;90.60;;;;;;5054021;28;20465;-69
2021/11/02 11:24:04;;;;;;;4.30;2.30;;;12.30;90.90;;;;;;5053941;28;20449;-69
2021/11/02 11:26:31;;;;;;;5.60;2.03;;;12.50;90.70;;;;;;5053892;28;20444;-69
2021/11/02 11:28:59;;;;;;;2.67;2.20;;;12.70;90.60;;;;;;5054006;28;20514;-69
2021/11/02 11:31:28;;;;;;;5.80;2.60;;;12.80;90.40;;;;;;5054101;28;20429;-69
2021/11/02 11:34:01;;;;;;;3.00;2.23;;;12.90;90.30;;;;;;5053848;28;20528;-69
2021/11/02 11:36:29;;;;;;;6.13;3.37;;;13.00;90.10;;;;;;5054064;28;20473;-69
2021/11/02 11:39:01;;;;;;;3.23;2.53;;;13.20;90.00;;;;;;5053442;28;20461;-69
2021/11/02 11:41:33;;;;;;;3.13;2.83;;;13.30;89.50;;;;;;5053716;28;20465;-69
2021/11/02 11:44:04;;;;;;;4.97;2.50;;;13.40;89.00;;;;;;5053636;28;20426;-69
2021/11/02 11:46:33;;;;;;;4.37;3.00;;;13.60;88.80;;;;;;5053880;28;20429;-69
2021/11/02 11:49:01;;;;;;;3.40;2.70;;;13.70;87.80;;;;;;5053436;28;20469;-69
2021/11/02 11:51:29;;;;;;;4.10;2.90;;;13.90;87.40;;;;;;5053385;28;20915;-69
2021/11/02 11:54:03;;;;;;;3.80;2.80;;;13.90;86.10;;;;;;5053813;28;20437;-69
2021/11/02 11:56:36;;;;;;;5.03;3.33;;;14.00;85.20;;;;;;5053784;28;20425;-69
2021/11/02 11:59:04;;;;;;;3.87;2.33;;;14.00;84.90;;;;;;5053395;28;20989;-69
2021/11/02 12:01:37;;;;;;;7.50;3.70;;;14.00;83.40;;;;;;5053295;28;21009;-69
2021/11/02 12:04:10;;;;;;;5.27;3.70;;;14.10;83.00;;;;;;5053675;28;20452;-69
2021/11/02 12:06:45;;;;;;;4.17;2.97;;;14.00;82.00;;;;;;5053185;28;20430;-70
2021/11/02 12:09:19;;;;;;;3.63;2.83;;;14.00;81.90;;;;;;5053348;28;20461;-69
2021/11/02 12:11:46;;;;;;;6.30;2.80;;;13.90;81.80;;;;;;5053415;28;20430;-69
2021/11/02 12:14:20;;;;;;;6.60;3.50;;;13.90;82.20;;;;;;5053569;28;20445;-69
2021/11/02 12:16:50;;;;;;;6.80;3.43;;;14.10;83.30;;;;;;5053560;28;20425;-70
2021/11/02 12:19:24;;;;;;;7.50;3.23;;;14.30;83.10;;;;;;5053383;28;20457;-69
2021/11/02 12:22:03;;;;;;;5.63;3.33;;;14.50;82.40;;;;;;5053268;28;20629;-69
2021/11/02 12:24:33;;;;;;;4.73;3.37;;;14.80;82.00;;;;;;5053094;28;20834;-69
2021/11/02 12:27:12;;;;;;;4.20;2.80;;;15.20;81.20;;;;;;5053385;28;20441;-69
2021/11/02 12:29:40;;;;;;;3.90;2.50;;;15.90;78.70;;;;;;5053230;28;20457;-69
2021/11/02 12:32:08;;;;;;;3.00;2.17;;;16.30;75.50;;;;;;5053291;28;20851;-69
2021/11/02 12:34:45;;;;;;;3.60;2.40;;;16.50;73.80;;;;;;5053207;28;20812;-69
2021/11/02 12:37:13;;;;;;;4.27;2.33;;;16.60;72.90;;;;;;5052878;28;20437;-69
2021/11/02 12:39:43;;;;;;;4.37;2.90;;;16.60;72.30;;;;;;5052924;28;20452;-69
2021/11/02 12:42:10;;;;;;;5.53;2.80;;;16.60;71.60;;;;;;5053161;28;20488;-69
2021/11/02 12:44:39;;;;;;;4.83;2.43;;;16.70;70.80;;;;;;5053213;28;20446;-69
2021/11/02 12:47:11;;;;;;;3.90;2.20;;;16.90;70.40;;;;;;5052776;28;20974;-69
2021/11/02 12:49:41;;;;;;;5.97;1.97;;;17.10;69.70;;;;;;5052782;28;20433;-69
2021/11/02 12:52:09;;;;;;;3.87;2.43;;;17.10;68.20;;;;;;5055974;28;20425;-69
2021/11/02 12:54:37;;;;;;;2.60;2.40;;;17.00;68.20;;;;;;5057204;28;20815;-69
2021/11/02 12:57:10;;;;;;;3.93;2.13;;;16.90;68.50;;;;;;5057006;28;20452;-69
2021/11/02 12:59:45;;;;;;;4.53;3.07;;;16.80;68.60;;;;;;5057059;28;20438;-69
2021/11/02 13:02:16;;;;;;;5.83;2.43;;;16.60;69.00;;;;;;5056566;28;20683;-69
2021/11/02 13:04:45;;;;;;;5.77;3.53;;;16.40;69.10;;;;;;5056955;28;20438;-69
2021/11/02 13:07:13;;;;;;;5.83;3.33;;;16.10;69.80;;;;;;5056879;28;20425;-69
2021/11/02 13:09:40;;;;;;;5.53;3.43;;;15.90;70.80;;;;;;5056875;28;20441;-69
2021/11/02 13:12:12;;;;;;;5.13;3.00;;;15.60;71.90;;;;;;5056457;28;20967;-70
2021/11/02 13:14:41;;;;;;;5.10;3.03;;;15.40;72.80;;;;;;5056795;28;20429;-69
2021/11/02 13:17:10;;;;;;;3.23;2.47;;;15.30;74.00;;;;;;5056733;28;20452;-68
2021/11/02 13:19:41;;;;;;;6.73;3.57;;;15.10;74.60;;;;;;5056442;28;20477;-69
2021/11/02 13:22:15;;;;;;;5.47;2.50;;;14.90;75.00;;;;;;5056688;28;20473;-69
2021/11/02 13:25:05;;;;;;;2.60;1.80;;;14.70;76.10;;;;;;5056367;28;20445;-69
2021/11/02 13:27:35;;;;;;;2.50;2.07;;;14.60;76.80;;;;;;5056578;28;20461;-69
2021/11/02 13:30:24;;;;;;;3.07;2.30;;;14.60;77.20;;;;;;5056201;28;20472;-69
2021/11/02 13:33:05;;;;;;;2.97;2.20;;;14.60;78.10;;;;;;5056534;28;20792;-69
2021/11/02 13:35:47;;;;;;;3.67;1.90;;;14.60;76.80;;;;;;5056140;28;20899;-69
2021/11/02 13:38:29;;;;;;;2.93;1.70;;;14.60;77.40;;;;;;5056000;28;20460;-69
2021/11/02 13:40:57;;;;;;;3.03;1.70;;;14.50;77.10;;;;;;5056303;28;20449;-69
2021/11/02 13:43:29;;;;;;;2.33;1.80;;;14.50;77.30;;;;;;5055979;28;20446;-69
2021/11/02 13:45:56;;;;;;;3.30;1.50;;;14.20;77.30;;;;;;5056239;28;20457;-69
2021/11/02 13:48:23;;;;;;;2.40;1.40;;;14.10;78.30;;;;;;5056116;28;20492;-69
2021/11/02 13:50:50;;;;;;;1.80;1.10;;;13.90;78.50;;;;;;5056517;28;20449;-69
2021/11/02 13:53:17;;;;;;;2.90;1.67;;;13.60;79.00;;;;;;5055577;28;20441;-69
2021/11/02 13:55:45;;;;;;;4.33;1.90;;;13.60;80.50;;;;;;5055639;28;20432;-69
2021/11/02 13:58:12;;;;;;;3.60;1.20;;;13.60;81.30;;;;;;5055106;28;20847;-69
2021/11/02 14:00:41;;;;;;;2.40;1.30;;;13.50;81.70;;;;;;5055797;28;20457;-69
2021/11/02 14:03:11;;;;;;;2.87;1.40;;;13.50;81.50;;;;;;5055384;28;20478;-69
2021/11/02 14:05:40;;;;;;;5.17;1.57;;;13.60;81.40;;;;;;5056649;28;20787;-64
2021/11/02 14:08:08;;;;;;;1.60;1.30;;;13.60;81.90;;;;;;5055590;28;20477;-64
2021/11/02 14:10:35;;;;;;;2.80;1.40;;;13.60;82.10;;;;;;5055168;28;20456;-64
2021/11/02 14:13:02;;;;;;;3.07;1.63;;;13.60;82.00;;;;;;5055538;28;20437;-64
2021/11/02 14:15:30;;;;;;;1.37;0.80;;;13.60;82.00;;;;;;5055141;28;20434;-64
2021/11/02 14:18:14;;;;;;;2.60;1.10;;;13.50;81.10;;;;;;5055057;28;20469;-64
2021/11/02 14:20:49;;;;;;;1.90;1.13;;;13.40;81.50;;;;;;5055091;28;20434;-64
2021/11/02 14:23:19;;;;;;;3.03;1.67;;;13.20;81.70;;;;;;5055094;28;20551;-64
2021/11/02 14:25:46;;;;;;;1.93;0.80;;;13.00;82.70;;;;;;5054912;28;20495;-64
2021/11/02 14:28:13;;;;;;;4.20;1.73;;;12.90;83.20;;;;;;5054536;28;20465;-65
2021/11/02 14:30:41;;;;;;;1.23;0.70;;;12.80;84.50;;;;;;5054419;28;20483;-65
2021/11/02 14:33:09;;;;;;;2.30;0.50;;;12.60;82.90;;;;;;5055554;28;20446;-65
2021/11/02 14:35:45;;;;;;;3.70;0.40;;;12.40;83.00;;;;;;5055245;28;20469;-65
2021/11/02 14:38:14;;;;;;;1.13;0.37;;;12.30;83.40;;;;;;5055059;28;20556;-65
2021/11/02 14:40:42;;;;;;;0.40;0.30;;;12.10;84.20;;;;;;5055268;28;20426;-64
2021/11/02 14:43:23;;;;;;;1.40;0.40;;;12.00;84.60;;;;;;5054781;28;21010;-64
2021/11/02 14:45:53;;;;;;;0.40;0.30;;;12.00;85.30;;;;;;5054590;28;20434;-64
2021/11/02 14:48:39;;;;;;;0.40;0.40;;;12.00;86.00;;;;;;5054496;28;20473;-64
2021/11/02 14:51:22;;;;;;;0.47;0.30;;;12.00;86.60;;;;;;5054501;28;20433;-64
2021/11/02 14:53:50;;;;;;;0.70;0.37;;;12.00;87.10;;;;;;5054375;28;20529;-64
2021/11/02 14:56:30;;;;;;;0.90;0.50;;;12.00;87.60;;;;;;5054897;28;20430;-64
2021/11/02 14:58:58;;;;;;;4.13;1.10;;;12.00;87.60;;;;;;5054444;28;21001;-64
2021/11/02 15:02:05;;;;;;;0.50;0.50;;;12.00;87.60;;;;;;5054747;28;20478;-64
2021/11/02 15:04:33;;;;;;;1.87;1.00;;;12.10;87.80;;;;;;5054733;28;20453;-63
2021/11/02 15:07:04;;;;;;;2.40;0.60;;;12.30;87.60;;;;;;5054738;28;20437;-64
2021/11/02 15:09:34;;;;;;;1.03;0.50;;;12.50;87.30;;;;;;5054605;28;20483;-65
2021/11/02 15:12:01;;;;;;;0.87;0.80;;;12.80;86.70;;;;;;5054263;28;20471;-65
2021/11/02 15:14:30;;;;;;;1.37;0.70;;;13.00;85.80;;;;;;5053412;28;20923;-65
2021/11/02 15:16:59;;;;;;;1.00;0.90;;;13.10;84.50;;;;;;5054478;28;20480;-65
2021/11/02 15:19:28;;;;;;;1.00;1.00;;;13.10;83.60;;;;;;5053993;28;20478;-64
2021/11/02 15:21:57;;;;;;;1.10;1.00;;;13.10;83.50;;;;;;5053973;28;21033;-64
2021/11/02 15:24:27;;;;;;;1.80;1.00;;;12.90;83.80;;;;;;5054337;28;20450;-64
2021/11/02 15:26:56;;;;;;;1.40;1.00;;;12.80;84.20;;;;;;5054268;28;20442;-64
2021/11/02 15:29:25;;;;;;;1.37;1.27;;;12.70;84.80;;;;;;5053975;28;20478;-65
2021/11/02 15:32:11;;;;;;;1.43;1.00;;;12.60;85.50;;;;;;5054142;28;20446;-64
2021/11/02 15:34:40;;;;;;;2.27;1.60;;;12.40;86.10;;;;;;5054179;28;20484;-64
2021/11/02 15:37:09;;;;;;;1.77;1.67;;;12.30;86.70;;;;;;5053975;28;20430;-64
2021/11/02 15:39:38;;;;;;;2.50;1.43;;;12.20;87.40;;;;;;5053996;28;20437;-64
2021/11/02 15:42:19;;;;;;;1.40;1.30;;;12.10;88.00;;;;;;5053821;28;20481;-64
2021/11/02 15:44:46;;;;;;;3.40;1.30;;;12.10;88.90;;;;;;5053892;28;20483;-64
2021/11/02 15:47:15;;;;;;;2.67;1.90;;;12.00;89.30;;;;;;5053858;28;20456;-65
2021/11/02 15:49:44;;;;;;;2.83;2.60;;;11.90;89.70;;;;;;5053875;28;20441;-64
2021/11/02 15:52:11;;;;;;;2.83;2.63;;;11.90;90.00;;;;;;5053839;28;20446;-64
2021/11/02 15:54:46;;;;;;;2.00;1.90;;;11.90;90.20;;;;;;5053789;28;20450;-64
2021/11/02 15:57:13;;;;;;;2.77;1.63;;;11.90;90.50;;;;;;5053431;28;20907;-65
2021/11/02 15:59:40;;;;;;;3.93;1.73;;;11.90;90.70;;;;;;5053757;28;20789;-64
2021/11/02 16:02:08;;;;;;;1.63;1.47;;;11.90;90.80;;;;;;5053656;28;20478;-64
2021/11/02 16:04:34;;;;;;;1.67;1.57;;;11.90;91.00;;;;;;5053356;28;20445;-63
2021/11/02 16:07:07;;;;;;;1.70;1.60;;;11.80;91.10;;;;;;5054192;28;20452;-63
2021/11/02 16:09:53;;;;;;;2.97;1.90;;;11.80;91.20;;;;;;5053542;28;20465;-64
2021/11/02 16:12:32;;;;;;;2.50;1.40;;;11.80;91.20;;;;;;5053540;28;20437;-63
2021/11/02 16:15:01;;;;;;;4.43;1.97;;;11.80;91.30;;;;;;5053220;28;20441;-64
2021/11/02 16:17:30;;;;;;;4.50;1.97;;;11.80;91.40;;;;;;5053408;28;20450;-64
2021/11/02 16:19:58;;;;;;;3.27;2.60;;;11.80;91.50;;;;;;5053497;28;20461;-64
2021/11/02 16:22:26;;;;;;;3.70;2.83;;;11.80;91.50;;;;;;5053344;28;20477;-64
2021/11/02 16:25:06;;;;;;;4.93;3.67;;;11.80;91.40;;;;;;5053210;28;20445;-64
2021/11/02 16:27:33;;;;;;;5.50;3.20;;;11.70;91.20;;;;;;5053249;28;20501;-64
2021/11/02 16:30:00;;;;;;;4.37;3.97;;;11.70;91.20;;;;;;5053361;28;20891;-64
2021/11/02 16:32:28;;;;;;;3.93;3.60;;;11.60;91.20;;;;;;5053286;28;20820;-64
2021/11/02 16:34:56;;;;;;;5.00;3.67;;;11.60;91.30;;;;;;5053302;28;20457;-64
2021/11/02 16:37:36;;;;;;;6.63;3.90;;;11.60;91.40;;;;;;5052881;28;20532;-65
2021/11/02 16:40:22;;;;;;;3.77;3.43;;;11.60;91.50;;;;;;5053320;28;20425;-68
2021/11/02 16:42:55;;;;;;;4.13;3.60;;;11.60;91.60;;;;;;5053768;28;20836;-71
2021/11/02 16:45:22;;;;;;;3.80;3.13;;;11.60;91.60;;;;;;5053197;28;20457;-66
2021/11/02 16:47:55;;;;;;;3.63;3.00;;;11.60;91.50;;;;;;5053048;28;20841;-66
2021/11/02 16:50:28;;;;;;;3.27;2.70;;;11.60;91.50;;;;;;5052843;28;20904;-65
2021/11/02 16:53:08;;;;;;;3.80;2.80;;;11.50;91.50;;;;;;5053218;28;20461;-65
2021/11/02 16:55:39;;;;;;;4.50;2.47;;;11.50;91.50;;;;;;5053090;28;20480;-65
2021/11/02 16:58:26;;;;;;;3.20;2.73;;;11.50;91.40;;;;;;5053118;28;20475;-66
2021/11/02 17:01:13;;;;;;;4.07;2.80;;;11.50;91.40;;;;;;5052794;28;20457;-66
2021/11/02 17:03:40;;;;;;;3.37;2.53;;;11.50;91.60;;;;;;5053040;28;20879;-66
2021/11/02 17:06:15;;;;;;;3.07;2.77;;;11.50;91.20;;;;;;5053584;28;20847;-66
2021/11/02 17:09:09;;;;;;;5.03;3.10;;;11.50;91.10;;;;;;5052890;28;20476;-66
2021/11/02 17:11:46;;;;;;;4.30;2.60;;;11.50;91.10;;;;;;5053073;28;20430;-66
2021/11/02 17:14:15;;;;;;;3.83;2.50;;;11.50;91.00;;;;;;5053814;28;20441;-66
2021/11/02 17:16:48;;;;;;;3.10;2.90;;;11.40;90.80;;;;;;5053758;28;20446;-66
2021/11/02 17:19:15;;;;;;;5.27;3.07;;;11.40;90.70;;;;;;5052643;28;20450;-65
2021/11/02 17:21:43;;;;;;;5.43;3.50;;;11.30;90.60;;;;;;5052856;28;20453;-66
2021/11/02 17:24:10;;;;;;;8.70;5.83;;;11.30;90.60;;;;;;5052809;28;20481;-66
2021/11/02 17:26:38;;;;;;;5.13;4.07;;;11.30;90.70;;;;;;5052502;28;20785;-69
2021/11/02 17:29:06;;;;;;;3.77;3.17;;;11.30;90.80;;;;;;5052560;28;20882;-66
2021/11/02 17:31:38;;;;;;;4.47;3.40;;;11.30;90.90;;;;;;5052470;28;20434;-66
2021/11/02 17:34:05;;;;;;;5.73;3.70;;;11.20;91.00;;;;;;5052412;28;20846;-69
2021/11/02 17:36:34;;;;;;;4.90;4.00;;;11.10;90.90;;;;;;5052486;28;20958;-69